Time;durP1;ratioP1;P1;durP2;ratioP2;P2;SDS_P1;SDS_P2;PMS_P1;PMS_P2;Temp;Humidity;BMP_temperature;BMP_pressure;BME280_temperature;BME280_humidity;BME280_pressure;Samples;Min_cycle;Max_cycle;Signal;HPM_P1;HPM_P2
2022/12/24 00:02:06;;;;;;;13.32;2.30;;;;;;;;;;7389011;19;20420;-75
2022/12/24 00:04:32;;;;;;;11.57;2.13;;;;;;;;;;7390663;19;19994;-75
2022/12/24 00:06:57;;;;;;;11.30;2.20;;;;;;;;;;7397502;19;19997;-75
2022/12/24 00:09:22;;;;;;;14.80;3.10;;;;;;;;;;7396802;19;20074;-75
2022/12/24 00:11:48;;;;;;;10.35;2.08;;;;;;;;;;7396425;19;19999;-75
2022/12/24 00:14:13;;;;;;;5.32;1.63;;;;;;;;;;7394489;19;19991;-75
2022/12/24 00:16:38;;;;;;;6.07;1.65;;;;;;;;;;7394573;19;20447;-75
2022/12/24 00:19:04;;;;;;;4.47;1.48;;;;;;;;;;7396096;19;20006;-75
2022/12/24 00:21:29;;;;;;;7.75;1.42;;;;;;;;;;7395691;19;19999;-76
2022/12/24 00:23:54;;;;;;;5.10;1.50;;;;;;;;;;7394112;19;20019;-74
2022/12/24 00:26:20;;;;;;;10.10;1.65;;;;;;;;;;7394650;19;20005;-74
2022/12/24 00:28:45;;;;;;;6.57;1.83;;;;;;;;;;7395423;19;20063;-74
2022/12/24 00:31:13;;;;;;;7.10;1.92;;;;;;;;;;7394230;19;19987;-74
2022/12/24 00:33:39;;;;;;;10.43;2.20;;;;;;;;;;7393874;19;20096;-75
2022/12/24 00:36:05;;;;;;;9.50;1.65;;;;;;;;;;7393118;19;20093;-74
2022/12/24 00:38:30;;;;;;;9.30;1.60;;;;;;;;;;7399015;19;19991;-75
2022/12/24 00:41:04;;;;;;;9.50;1.90;;;;;;;;;;7395645;19;20018;-75
2022/12/24 00:43:29;;;;;;;10.07;2.00;;;;;;;;;;7392341;19;20022;-75
2022/12/24 00:45:55;;;;;;;7.70;1.85;;;;;;;;;;7394786;19;20002;-75
2022/12/24 00:48:21;;;;;;;9.02;2.13;;;;;;;;;;7395397;19;19994;-75
2022/12/24 00:50:47;;;;;;;6.85;1.60;;;;;;;;;;7395063;19;19999;-75
2022/12/24 00:53:13;;;;;;;7.35;1.38;;;;;;;;;;7393613;19;19994;-75
2022/12/24 00:55:38;;;;;;;6.32;2.03;;;;;;;;;;7392949;19;20344;-75
2022/12/24 00:58:03;;;;;;;8.73;1.70;;;;;;;;;;7394825;19;19998;-75
2022/12/24 01:00:28;;;;;;;9.75;2.00;;;;;;;;;;7394644;19;20010;-74
2022/12/24 01:02:54;;;;;;;10.73;2.25;;;;;;;;;;7393480;19;20539;-74
2022/12/24 01:05:19;;;;;;;9.43;1.55;;;;;;;;;;7394471;19;20439;-74
2022/12/24 01:07:46;;;;;;;9.65;2.10;;;;;;;;;;7392333;19;20345;-74
2022/12/24 01:10:17;;;;;;;11.77;1.88;;;;;;;;;;7394432;19;20393;-74
2022/12/24 01:12:43;;;;;;;8.13;1.88;;;;;;;;;;7393230;19;20062;-74
2022/12/24 01:15:09;;;;;;;13.10;2.25;;;;;;;;;;7391398;19;19998;-74
2022/12/24 01:17:35;;;;;;;9.63;1.85;;;;;;;;;;7390829;19;20018;-71
2022/12/24 01:20:02;;;;;;;12.48;2.35;;;;;;;;;;7393129;19;19999;-73
2022/12/24 01:22:27;;;;;;;10.27;1.95;;;;;;;;;;7394143;19;20007;-70
2022/12/24 01:24:52;;;;;;;8.70;1.52;;;;;;;;;;7392892;19;20328;-72
2022/12/24 01:27:18;;;;;;;10.90;2.05;;;;;;;;;;7392961;19;20096;-71
2022/12/24 01:29:43;;;;;;;6.97;1.92;;;;;;;;;;7394449;19;20009;-71
2022/12/24 01:32:08;;;;;;;12.88;2.30;;;;;;;;;;7392719;19;20062;-71
2022/12/24 01:34:34;;;;;;;10.43;2.15;;;;;;;;;;7392180;19;20002;-73
2022/12/24 01:36:59;;;;;;;11.02;2.40;;;;;;;;;;7391742;19;20015;-73
2022/12/24 01:39:24;;;;;;;14.80;2.10;;;;;;;;;;7392998;19;20003;-72
2022/12/24 01:44:38;;;;;;;9.02;2.53;;;;;;;;;;7393459;19;20021;-72
2022/12/24 01:47:16;;;;;;;11.05;2.28;;;;;;;;;;7392909;19;20361;-72
2022/12/24 01:49:46;;;;;;;10.45;2.35;;;;;;;;;;7393862;19;20365;-72
2022/12/24 01:52:16;;;;;;;8.00;1.80;;;;;;;;;;7392543;19;20163;-72
2022/12/24 01:55:05;;;;;;;10.05;2.08;;;;;;;;;;7391523;19;20058;-72
2022/12/24 01:57:36;;;;;;;9.82;1.73;;;;;;;;;;7396151;19;19995;-72
2022/12/24 02:00:09;;;;;;;9.52;1.92;;;;;;;;;;7393461;19;20006;-72
2022/12/24 02:02:36;;;;;;;7.53;1.80;;;;;;;;;;7390614;19;19995;-72
2022/12/24 02:05:06;;;;;;;13.60;2.45;;;;;;;;;;7396236;19;20023;-72
2022/12/24 02:07:32;;;;;;;10.07;2.87;;;;;;;;;;7390383;19;20002;-72
2022/12/24 02:10:00;;;;;;;9.30;1.80;;;;;;;;;;7393087;19;20011;-72
2022/12/24 02:12:27;;;;;;;10.45;2.35;;;;;;;;;;7392290;19;20110;-72
2022/12/24 02:14:53;;;;;;;7.72;2.33;;;;;;;;;;7390949;19;20480;-71
2022/12/24 02:17:43;;;;;;;10.13;2.45;;;;;;;;;;7391664;19;20451;-73
2022/12/24 02:20:25;;;;;;;9.00;2.10;;;;;;;;;;7392838;19;20032;-71
2022/12/24 02:23:09;;;;;;;8.30;2.00;;;;;;;;;;7391259;19;19998;-71
2022/12/24 02:26:06;;;;;;;6.32;1.73;;;;;;;;;;7392548;19;20322;-71
2022/12/24 02:28:46;;;;;;;7.57;1.67;;;;;;;;;;7392688;19;19999;-71
2022/12/24 02:31:23;;;;;;;13.18;2.10;;;;;;;;;;7391428;19;20764;-72
2022/12/24 02:34:06;;;;;;;10.68;1.98;;;;;;;;;;7391057;19;20009;-72
2022/12/24 02:36:39;;;;;;;9.45;1.63;;;;;;;;;;7391899;19;20073;-72
2022/12/24 02:39:09;;;;;;;8.82;1.70;;;;;;;;;;7391370;19;20126;-71
2022/12/24 02:44:26;;;;;;;9.70;2.20;;;;;;;;;;7391285;19;20016;-71
2022/12/24 02:46:52;;;;;;;6.95;1.75;;;;;;;;;;7391150;19;20009;-71
2022/12/24 02:49:18;;;;;;;11.70;2.55;;;;;;;;;;7391891;19;19999;-72
2022/12/24 02:51:43;;;;;;;15.02;2.45;;;;;;;;;;7391812;19;20005;-71
2022/12/24 02:54:09;;;;;;;15.25;2.33;;;;;;;;;;7390051;19;19998;-71
2022/12/24 02:56:43;;;;;;;10.40;2.05;;;;;;;;;;7389438;19;19995;-71
2022/12/24 02:59:33;;;;;;;11.07;2.10;;;;;;;;;;7391740;19;19995;-71
2022/12/24 03:02:25;;;;;;;11.10;2.00;;;;;;;;;;7391866;19;20105;-71
2022/12/24 03:05:03;;;;;;;8.90;1.85;;;;;;;;;;7390696;19;20013;-70
2022/12/24 03:07:33;;;;;;;9.65;1.75;;;;;;;;;;7391165;19;20093;-71
2022/12/24 03:10:09;;;;;;;10.23;1.70;;;;;;;;;;7391286;19;20523;-71
2022/12/24 03:12:43;;;;;;;7.40;1.85;;;;;;;;;;7390461;19;19999;-71
2022/12/24 03:15:10;;;;;;;5.75;1.20;;;;;;;;;;7389162;19;20394;-71
2022/12/24 03:17:38;;;;;;;9.35;2.20;;;;;;;;;;7390469;19;20007;-70
2022/12/24 03:20:07;;;;;;;10.80;2.00;;;;;;;;;;7390592;19;20008;-72
2022/12/24 03:22:33;;;;;;;9.27;1.60;;;;;;;;;;7391251;19;20206;-72
2022/12/24 03:24:59;;;;;;;7.95;1.73;;;;;;;;;;7391739;19;20010;-71
2022/12/24 03:27:28;;;;;;;7.68;1.63;;;;;;;;;;7390458;19;19994;-71
2022/12/24 03:29:53;;;;;;;12.73;2.35;;;;;;;;;;7391596;19;20358;-71
2022/12/24 03:32:24;;;;;;;12.07;2.85;;;;;;;;;;7390342;19;20002;-71
2022/12/24 03:34:50;;;;;;;5.80;1.85;;;;;;;;;;7389921;19;19995;-72
2022/12/24 03:37:15;;;;;;;6.93;1.52;;;;;;;;;;7388735;19;20019;-71
2022/12/24 03:39:40;;;;;;;12.70;2.35;;;;;;;;;;7394926;19;20066;-71
2022/12/24 03:42:06;;;;;;;18.52;1.83;;;;;;;;;;7397176;19;19995;-71
2022/12/24 03:44:31;;;;;;;11.23;1.75;;;;;;;;;;7397371;19;20001;-71
2022/12/24 03:46:56;;;;;;;6.38;1.70;;;;;;;;;;7397409;19;20078;-72
2022/12/24 03:49:22;;;;;;;8.98;2.58;;;;;;;;;;7398912;19;20010;-71
2022/12/24 03:51:47;;;;;;;8.68;1.98;;;;;;;;;;7397986;19;20001;-72
2022/12/24 03:54:12;;;;;;;9.43;2.00;;;;;;;;;;7396432;19;19994;-71
2022/12/24 03:56:38;;;;;;;10.45;1.98;;;;;;;;;;7397032;19;19995;-70
2022/12/24 03:59:03;;;;;;;10.45;2.05;;;;;;;;;;7398904;19;19994;-71
2022/12/24 04:01:29;;;;;;;9.88;1.77;;;;;;;;;;7398397;19;19994;-71
2022/12/24 04:03:54;;;;;;;7.53;2.00;;;;;;;;;;7396332;19;19998;-71
2022/12/24 04:06:19;;;;;;;12.77;2.25;;;;;;;;;;7398811;19;19999;-71
2022/12/24 04:08:45;;;;;;;10.98;2.20;;;;;;;;;;7396047;19;20025;-71
2022/12/24 04:11:13;;;;;;;12.10;1.90;;;;;;;;;;7397904;19;19994;-70
2022/12/24 04:13:38;;;;;;;22.73;2.80;;;;;;;;;;7397474;19;20021;-71
2022/12/24 04:16:06;;;;;;;11.95;2.20;;;;;;;;;;7393551;19;19998;-71
2022/12/24 04:18:31;;;;;;;8.45;1.95;;;;;;;;;;7396836;19;19998;-71
2022/12/24 04:20:57;;;;;;;10.45;2.17;;;;;;;;;;7397048;19;19999;-71
2022/12/24 04:23:23;;;;;;;8.00;2.22;;;;;;;;;;7395228;19;20018;-70
2022/12/24 04:25:49;;;;;;;13.05;2.38;;;;;;;;;;7396625;19;20097;-70
2022/12/24 04:28:14;;;;;;;10.98;2.20;;;;;;;;;;7393899;19;20311;-71
2022/12/24 04:30:40;;;;;;;12.60;2.35;;;;;;;;;;7396995;19;20014;-72
2022/12/24 04:33:06;;;;;;;11.90;2.10;;;;;;;;;;7395231;19;19995;-72
2022/12/24 04:35:32;;;;;;;10.93;2.30;;;;;;;;;;7393481;19;20379;-71
2022/12/24 04:37:57;;;;;;;8.77;2.13;;;;;;;;;;7394078;19;19995;-71
2022/12/24 04:40:23;;;;;;;9.38;2.00;;;;;;;;;;7395136;19;20681;-72
2022/12/24 04:42:49;;;;;;;11.25;2.05;;;;;;;;;;7393032;19;20110;-70
2022/12/24 04:45:15;;;;;;;9.85;2.13;;;;;;;;;;7396247;19;19987;-72
2022/12/24 04:47:40;;;;;;;9.88;2.25;;;;;;;;;;7394282;19;19999;-71
2022/12/24 04:50:06;;;;;;;10.13;2.00;;;;;;;;;;7393840;19;20069;-70
2022/12/24 04:52:32;;;;;;;12.80;1.92;;;;;;;;;;7394368;19;19998;-70
2022/12/24 04:54:58;;;;;;;18.95;2.65;;;;;;;;;;7394679;19;19995;-70
2022/12/24 04:57:23;;;;;;;11.30;2.35;;;;;;;;;;7394263;19;20001;-70
2022/12/24 04:59:48;;;;;;;10.45;2.10;;;;;;;;;;7395506;19;19995;-70
2022/12/24 05:02:14;;;;;;;12.20;2.22;;;;;;;;;;7395935;19;20044;-70
2022/12/24 05:04:39;;;;;;;7.53;1.70;;;;;;;;;;7393432;19;20002;-71
2022/12/24 05:07:04;;;;;;;16.70;2.38;;;;;;;;;;7393977;19;19998;-71
2022/12/24 05:09:30;;;;;;;4.55;1.83;;;;;;;;;;7395230;19;20019;-71
2022/12/24 05:11:55;;;;;;;10.63;2.08;;;;;;;;;;7395133;19;20019;-70
2022/12/24 05:14:20;;;;;;;15.15;2.30;;;;;;;;;;7393695;19;20103;-72
2022/12/24 05:16:46;;;;;;;9.80;2.20;;;;;;;;;;7392976;19;19998;-72
2022/12/24 05:19:11;;;;;;;5.93;1.80;;;;;;;;;;7395557;19;20092;-71
2022/12/24 05:21:36;;;;;;;10.57;2.58;;;;;;;;;;7395163;19;20027;-72
2022/12/24 05:26:52;;;;;;;10.07;1.95;;;;;;;;;;7394205;19;20009;-70
2022/12/24 05:29:17;;;;;;;6.10;2.10;;;;;;;;;;7393062;19;19995;-70
2022/12/24 05:31:43;;;;;;;11.27;1.63;;;;;;;;;;7394714;19;19997;-70
2022/12/24 05:34:10;;;;;;;7.22;1.95;;;;;;;;;;7392515;19;19994;-71
2022/12/24 05:36:35;;;;;;;11.95;2.35;;;;;;;;;;7393520;19;20058;-71
2022/12/24 05:39:01;;;;;;;13.75;2.92;;;;;;;;;;7394576;19;20020;-71
2022/12/24 05:41:26;;;;;;;10.88;2.13;;;;;;;;;;7396365;19;20465;-71
2022/12/24 05:43:52;;;;;;;13.00;2.55;;;;;;;;;;7392720;19;20046;-70
2022/12/24 05:46:20;;;;;;;7.38;1.85;;;;;;;;;;7392378;19;20026;-70
2022/12/24 05:48:46;;;;;;;14.70;2.10;;;;;;;;;;7393889;19;20022;-71
2022/12/24 05:51:12;;;;;;;10.60;2.17;;;;;;;;;;7393183;19;19994;-70
2022/12/24 05:53:39;;;;;;;7.45;2.00;;;;;;;;;;7392357;19;19990;-70
2022/12/24 05:56:07;;;;;;;7.70;1.85;;;;;;;;;;7391761;19;20466;-70
2022/12/24 05:58:32;;;;;;;10.13;2.05;;;;;;;;;;7393686;19;20004;-70
2022/12/24 06:01:00;;;;;;;10.40;2.53;;;;;;;;;;7393649;19;19998;-70
2022/12/24 06:03:25;;;;;;;11.60;2.30;;;;;;;;;;7391763;19;20018;-71
2022/12/24 06:06:04;;;;;;;9.45;2.42;;;;;;;;;;7396986;19;20054;-71
2022/12/24 06:08:39;;;;;;;12.57;2.40;;;;;;;;;;7393666;19;20002;-71
2022/12/24 06:11:07;;;;;;;8.23;1.90;;;;;;;;;;7392527;19;19995;-71
2022/12/24 06:13:33;;;;;;;11.57;2.30;;;;;;;;;;7391719;19;20025;-71
2022/12/24 06:16:00;;;;;;;6.57;2.03;;;;;;;;;;7391459;19;19994;-71
2022/12/24 06:18:25;;;;;;;12.10;3.03;;;;;;;;;;7393546;19;20012;-71
2022/12/24 06:20:55;;;;;;;7.88;2.13;;;;;;;;;;7393177;19;19994;-71
2022/12/24 06:23:21;;;;;;;13.23;2.40;;;;;;;;;;7390686;19;19991;-71
2022/12/24 06:25:47;;;;;;;6.32;1.73;;;;;;;;;;7392985;19;20017;-70
2022/12/24 06:28:13;;;;;;;13.25;2.55;;;;;;;;;;7391049;19;20058;-73
2022/12/24 06:30:39;;;;;;;17.92;3.08;;;;;;;;;;7392804;19;19994;-71
2022/12/24 06:33:04;;;;;;;11.68;2.90;;;;;;;;;;7391293;19;19995;-71
2022/12/24 06:35:31;;;;;;;15.55;2.90;;;;;;;;;;7390343;19;20006;-71
2022/12/24 06:37:57;;;;;;;8.25;2.40;;;;;;;;;;7393825;19;19995;-70
2022/12/24 06:40:22;;;;;;;13.00;2.80;;;;;;;;;;7392479;19;20005;-70
2022/12/24 06:42:47;;;;;;;10.68;2.03;;;;;;;;;;7391200;19;19999;-71
2022/12/24 06:45:12;;;;;;;7.38;2.38;;;;;;;;;;7392022;19;19995;-72
2022/12/24 06:47:38;;;;;;;16.88;3.47;;;;;;;;;;7389462;19;19998;-72
2022/12/24 06:50:04;;;;;;;12.82;2.50;;;;;;;;;;7392478;19;19986;-72
2022/12/24 06:52:29;;;;;;;13.57;2.83;;;;;;;;;;7391830;19;20385;-71
2022/12/24 06:54:54;;;;;;;15.52;2.95;;;;;;;;;;7390349;19;20033;-72
2022/12/24 06:57:20;;;;;;;14.43;3.22;;;;;;;;;;7390888;19;20078;-72
2022/12/24 06:59:46;;;;;;;15.00;2.67;;;;;;;;;;7391761;19;19995;-72
2022/12/24 07:02:11;;;;;;;18.05;2.70;;;;;;;;;;7392201;19;19999;-71
2022/12/24 07:04:36;;;;;;;12.57;2.50;;;;;;;;;;7390300;19;20011;-71
2022/12/24 07:07:01;;;;;;;18.42;3.28;;;;;;;;;;7389697;19;20010;-71
2022/12/24 07:09:30;;;;;;;11.40;2.97;;;;;;;;;;7390018;19;19990;-71
2022/12/24 07:11:55;;;;;;;16.08;2.85;;;;;;;;;;7388855;19;19994;-71
2022/12/24 07:14:21;;;;;;;12.23;2.15;;;;;;;;;;7387838;19;19991;-72
2022/12/24 07:16:46;;;;;;;17.90;3.58;;;;;;;;;;7391207;19;21242;-73
2022/12/24 07:19:11;;;;;;;13.18;3.17;;;;;;;;;;7392759;19;19994;-76
2022/12/24 07:21:36;;;;;;;9.93;2.83;;;;;;;;;;7395027;19;19999;-74
2022/12/24 07:24:02;;;;;;;10.63;2.65;;;;;;;;;;7392163;19;20062;-74
2022/12/24 07:26:27;;;;;;;16.75;2.92;;;;;;;;;;7394916;19;20579;-73
2022/12/24 07:28:58;;;;;;;14.15;2.53;;;;;;;;;;7389837;19;20385;-74
2022/12/24 07:31:23;;;;;;;13.57;2.85;;;;;;;;;;7394659;19;19998;-75
2022/12/24 07:33:49;;;;;;;12.00;2.40;;;;;;;;;;7391508;19;20032;-73
2022/12/24 07:36:19;;;;;;;11.43;2.67;;;;;;;;;;7392519;19;20023;-74
2022/12/24 07:38:44;;;;;;;15.18;2.60;;;;;;;;;;7390355;19;20018;-74
2022/12/24 07:41:12;;;;;;;12.63;2.72;;;;;;;;;;7392488;19;19987;-74
2022/12/24 07:43:38;;;;;;;13.30;2.67;;;;;;;;;;7392717;19;19995;-75
2022/12/24 07:46:04;;;;;;;20.90;3.75;;;;;;;;;;7393280;19;20411;-74
2022/12/24 07:48:30;;;;;;;21.02;3.88;;;;;;;;;;7325740;19;20010;-73
2022/12/24 07:50:59;;;;;;;15.25;3.10;;;;;;;;;;7390051;19;20002;-73
2022/12/24 07:53:26;;;;;;;15.15;3.20;;;;;;;;;;7384627;19;20485;-74
2022/12/24 07:55:52;;;;;;;18.90;3.42;;;;;;;;;;7386287;19;20436;-74
2022/12/24 07:58:18;;;;;;;13.05;3.03;;;;;;;;;;7384870;19;20003;-75
2022/12/24 08:00:44;;;;;;;18.65;3.20;;;;;;;;;;7391562;19;19999;-75
2022/12/24 08:03:18;;;;;;;16.63;3.40;;;;;;;;;;7389567;19;20058;-75
2022/12/24 08:05:44;;;;;;;17.80;3.65;;;;;;;;;;7391074;19;20017;-76
2022/12/24 08:08:09;;;;;;;15.88;2.83;;;;;;;;;;7384848;19;20010;-76
2022/12/24 08:10:41;;;;;;;14.68;2.83;;;;;;;;;;7386747;19;20023;-75
2022/12/24 08:13:06;;;;;;;15.77;2.95;;;;;;;;;;7387562;19;19998;-75
2022/12/24 08:15:32;;;;;;;14.85;3.22;;;;;;;;;;7388043;19;20489;-75
2022/12/24 08:17:57;;;;;;;11.57;2.65;;;;;;;;;;7391624;19;20077;-76
2022/12/24 08:20:23;;;;;;;15.68;3.08;;;;;;;;;;7390288;19;20003;-76
2022/12/24 08:22:48;;;;;;;19.02;3.20;;;;;;;;;;7388106;19;20553;-76
2022/12/24 08:25:14;;;;;;;15.40;3.08;;;;;;;;;;7392125;19;20380;-75
2022/12/24 08:27:39;;;;;;;9.20;3.17;;;;;;;;;;7398345;19;19994;-72
2022/12/24 08:30:05;;;;;;;18.60;4.03;;;;;;;;;;7396427;19;20007;-72
2022/12/24 08:32:31;;;;;;;16.23;3.33;;;;;;;;;;7395536;19;20018;-74
2022/12/24 08:34:56;;;;;;;14.32;3.30;;;;;;;;;;7394552;19;20025;-74
2022/12/24 08:37:22;;;;;;;15.93;2.95;;;;;;;;;;7394549;19;20022;-73
2022/12/24 08:39:47;;;;;;;18.15;3.00;;;;;;;;;;7398579;19;20019;-76
2022/12/24 08:42:12;;;;;;;15.30;4.28;;;;;;;;;;7396253;19;19995;-74
2022/12/24 08:44:38;;;;;;;24.23;3.88;;;;;;;;;;7393382;19;20015;-77
2022/12/24 08:47:03;;;;;;;19.42;3.40;;;;;;;;;;7393865;19;19999;-75
2022/12/24 08:49:28;;;;;;;16.60;3.90;;;;;;;;;;7396030;19;19999;-76
2022/12/24 08:51:54;;;;;;;13.13;3.03;;;;;;;;;;7394963;19;19995;-77
2022/12/24 08:54:21;;;;;;;15.10;3.50;;;;;;;;;;7392639;19;20013;-77
2022/12/24 08:56:46;;;;;;;25.08;4.38;;;;;;;;;;7398119;19;19994;-78
2022/12/24 08:59:11;;;;;;;18.55;4.35;;;;;;;;;;7399690;19;20031;-77
2022/12/24 09:01:37;;;;;;;21.20;3.50;;;;;;;;;;7395677;19;20084;-78
2022/12/24 09:04:03;;;;;;;15.55;3.08;;;;;;;;;;7393964;19;19999;-77
2022/12/24 09:06:28;;;;;;;21.90;3.92;;;;;;;;;;7393741;19;19994;-78
2022/12/24 09:08:54;;;;;;;17.60;3.35;;;;;;;;;;7394137;19;19998;-76
2022/12/24 09:11:19;;;;;;;20.65;3.38;;;;;;;;;;7396779;19;20077;-77
2022/12/24 09:13:45;;;;;;;13.93;3.15;;;;;;;;;;7397825;19;20461;-77
2022/12/24 09:16:11;;;;;;;15.00;3.03;;;;;;;;;;7396781;19;20037;-80
2022/12/24 09:18:38;;;;;;;18.77;3.20;;;;;;;;;;7396815;19;20006;-79
2022/12/24 09:21:13;;;;;;;16.65;2.80;;;;;;;;;;7398686;19;20006;-77
2022/12/24 09:23:39;;;;;;;18.90;3.70;;;;;;;;;;7397541;19;20459;-80
2022/12/24 09:26:22;;;;;;;18.40;4.18;;;;;;;;;;7394560;19;20010;-79
2022/12/24 09:28:48;;;;;;;13.25;3.38;;;;;;;;;;7394674;19;20006;-78
2022/12/24 09:31:14;;;;;;;18.33;3.25;;;;;;;;;;7396282;19;20001;-78
2022/12/24 09:33:41;;;;;;;17.60;3.05;;;;;;;;;;7396125;19;19995;-77
2022/12/24 09:36:06;;;;;;;21.80;4.65;;;;;;;;;;7394803;19;20405;-77
2022/12/24 09:38:32;;;;;;;15.88;2.78;;;;;;;;;;7391904;19;19999;-77
2022/12/24 09:40:59;;;;;;;20.77;3.28;;;;;;;;;;7394335;19;20007;-76
2022/12/24 09:43:30;;;;;;;17.33;2.65;;;;;;;;;;7395842;19;19991;-78
2022/12/24 09:45:55;;;;;;;16.23;2.75;;;;;;;;;;7393898;19;20002;-77
2022/12/24 09:48:26;;;;;;;14.65;3.50;;;;;;;;;;7389815;19;20005;-78
2022/12/24 09:51:09;;;;;;;14.80;2.95;;;;;;;;;;7387153;19;20615;-78
2022/12/24 09:53:58;;;;;;;14.18;3.05;;;;;;;;;;7386517;19;19998;-76
2022/12/24 09:56:32;;;;;;;21.13;3.33;;;;;;;;;;7390475;19;20086;-77
2022/12/24 09:59:04;;;;;;;24.98;4.50;;;;;;;;;;7389739;19;20244;-77
2022/12/24 10:01:31;;;;;;;13.90;3.45;;;;;;;;;;7388681;19;20026;-78
2022/12/24 10:04:18;;;;;;;14.02;2.78;;;;;;;;;;7387146;19;20006;-78
2022/12/24 10:06:57;;;;;;;14.52;2.70;;;;;;;;;;7391919;19;20018;-78
2022/12/24 10:09:56;;;;;;;16.63;2.95;;;;;;;;;;7393168;19;20002;-77
2022/12/24 10:12:24;;;;;;;16.42;2.72;;;;;;;;;;7391338;19;20468;-77
2022/12/24 10:15:02;;;;;;;9.35;2.30;;;;;;;;;;7391765;19;20008;-77
2022/12/24 10:17:39;;;;;;;11.70;2.63;;;;;;;;;;7390493;19;20030;-77
2022/12/24 10:20:53;;;;;;;16.02;2.72;;;;;;;;;;7393196;19;20006;-77
2022/12/24 10:23:35;;;;;;;14.23;2.67;;;;;;;;;;7388576;19;20002;-77
2022/12/24 10:26:11;;;;;;;;;;;;;;;;;;7395356;19;20001;-77
2022/12/24 10:28:50;;;;;;;13.75;2.40;;;;;;;;;;7391092;19;19939;-77
2022/12/24 10:31:21;;;;;;;10.93;2.40;;;;;;;;;;7393032;19;20020;-77
2022/12/24 10:33:54;;;;;;;13.90;2.40;;;;;;;;;;7391248;19;20460;-77
2022/12/24 10:36:27;;;;;;;15.80;3.40;;;;;;;;;;7391234;19;20014;-77
2022/12/24 10:38:53;;;;;;;12.00;2.55;;;;;;;;;;7392016;19;20349;-77
2022/12/24 10:41:19;;;;;;;11.77;2.75;;;;;;;;;;7396378;19;20075;-76
2022/12/24 10:43:46;;;;;;;10.68;2.40;;;;;;;;;;7392028;19;19999;-76
2022/12/24 10:46:21;;;;;;;10.05;2.40;;;;;;;;;;7392636;19;20394;-77
2022/12/24 10:48:53;;;;;;;10.73;2.22;;;;;;;;;;7389709;19;20019;-78
2022/12/24 10:51:40;;;;;;;12.30;2.45;;;;;;;;;;7380586;19;20011;-77
2022/12/24 10:54:12;;;;;;;14.65;2.83;;;;;;;;;;7390630;19;20007;-75
2022/12/24 10:56:41;;;;;;;11.70;2.63;;;;;;;;;;7281185;19;20054;-75
2022/12/24 10:59:33;;;;;;;12.88;2.42;;;;;;;;;;7389859;19;20381;-75
2022/12/24 11:02:00;;;;;;;11.98;2.50;;;;;;;;;;7386890;19;20070;-76
2022/12/24 11:04:29;;;;;;;14.95;2.88;;;;;;;;;;7388277;19;20006;-76
2022/12/24 11:07:04;;;;;;;13.80;2.53;;;;;;;;;;7386579;19;20005;-77
2022/12/24 11:09:35;;;;;;;12.30;2.53;;;;;;;;;;7390690;19;20452;-76
2022/12/24 11:12:03;;;;;;;;;;;;;;;;;;7389788;19;20019;-76
2022/12/24 11:14:33;;;;;;;12.73;2.20;;;;;;;;;;7387939;19;20310;-79
2022/12/24 11:16:58;;;;;;;10.45;2.22;;;;;;;;;;7385527;19;20420;-74
2022/12/24 11:19:32;;;;;;;12.35;2.90;;;;;;;;;;7391535;19;19995;-75
2022/12/24 11:22:26;;;;;;;14.32;2.53;;;;;;;;;;7387584;19;20006;-74
2022/12/24 11:25:17;;;;;;;11.90;2.50;;;;;;;;;;7385376;19;20027;-75
2022/12/24 11:27:48;;;;;;;11.98;2.38;;;;;;;;;;7387469;19;20032;-75
2022/12/24 11:30:13;;;;;;;;;;;;;;;;;;7392563;19;20003;-77
2022/12/24 11:32:39;;;;;;;12.47;2.47;;;;;;;;;;7386475;19;20416;-75
2022/12/24 11:35:06;;;;;;;13.13;2.50;;;;;;;;;;7391267;19;20251;-74
2022/12/24 11:37:31;;;;;;;20.20;2.70;;;;;;;;;;7387875;19;20005;-77
2022/12/24 11:40:00;;;;;;;11.48;2.33;;;;;;;;;;7390204;19;19995;-75
2022/12/24 11:42:29;;;;;;;12.52;2.33;;;;;;;;;;7388685;19;20009;-76
2022/12/24 11:44:56;;;;;;;14.10;2.63;;;;;;;;;;7387761;19;20066;-76
2022/12/24 11:47:37;;;;;;;8.65;2.60;;;;;;;;;;7388037;19;20003;-76
2022/12/24 11:50:24;;;;;;;13.57;2.90;;;;;;;;;;7386200;19;20378;-76
2022/12/24 11:53:02;;;;;;;13.05;2.50;;;;;;;;;;7382226;19;20100;-77
2022/12/24 11:55:54;;;;;;;17.35;3.35;;;;;;;;;;7387974;19;20054;-74
2022/12/24 11:58:41;;;;;;;14.00;3.22;;;;;;;;;;7387103;19;21036;-73
2022/12/24 12:01:37;;;;;;;16.00;2.63;;;;;;;;;;7394156;19;20049;-74
2022/12/24 12:04:23;;;;;;;8.68;2.33;;;;;;;;;;7392077;19;19995;-78
2022/12/24 12:06:54;;;;;;;16.60;2.88;;;;;;;;;;7393516;19;21581;-76
2022/12/24 12:09:27;;;;;;;15.75;3.03;;;;;;;;;;7396078;19;20030;-74
2022/12/24 12:11:59;;;;;;;14.68;2.70;;;;;;;;;;7394897;19;20062;-77
2022/12/24 12:14:38;;;;;;;22.95;3.00;;;;;;;;;;7395506;19;20010;-74
2022/12/24 12:17:33;;;;;;;17.45;3.65;;;;;;;;;;7396535;19;20487;-77
2022/12/24 12:20:05;;;;;;;18.27;3.33;;;;;;;;;;7393891;19;19994;-77
2022/12/24 12:22:49;;;;;;;;;;;;;;;;;;7396367;19;19999;-75
2022/12/24 12:25:25;;;;;;;17.48;2.53;;;;;;;;;;7394443;19;19922;-75
2022/12/24 12:27:54;;;;;;;15.32;2.70;;;;;;;;;;7393354;19;20193;-74
2022/12/24 12:30:21;;;;;;;13.82;2.78;;;;;;;;;;7395057;19;19999;-75
2022/12/24 12:33:08;;;;;;;16.30;2.53;;;;;;;;;;7393868;19;20355;-75
2022/12/24 12:35:37;;;;;;;10.80;2.45;;;;;;;;;;7390401;19;20002;-75
2022/12/24 12:38:16;;;;;;;13.27;2.90;;;;;;;;;;7391790;19;19998;-73
2022/12/24 12:41:03;;;;;;;16.92;3.10;;;;;;;;;;7394458;19;20344;-75
2022/12/24 12:43:45;;;;;;;16.85;2.60;;;;;;;;;;7394574;19;20002;-74
2022/12/24 12:46:30;;;;;;;14.73;2.90;;;;;;;;;;7396042;19;20003;-74
2022/12/24 12:49:24;;;;;;;13.73;3.00;;;;;;;;;;7393894;19;20013;-74
2022/12/24 12:52:02;;;;;;;14.52;2.78;;;;;;;;;;7391127;19;20007;-74
2022/12/24 12:54:43;;;;;;;9.18;2.15;;;;;;;;;;7394209;19;20350;-75
2022/12/24 12:57:14;;;;;;;19.88;2.70;;;;;;;;;;7393529;19;19998;-76
2022/12/24 12:59:43;;;;;;;;;;;;;;;;;;7393304;19;20003;-76
2022/12/24 13:02:33;;;;;;;17.55;2.67;;;;;;;;;;7392655;19;19911;-75
2022/12/24 13:05:14;;;;;;;12.88;2.90;;;;;;;;;;7392157;19;20007;-74
2022/12/24 13:07:47;;;;;;;16.58;3.00;;;;;;;;;;7387216;19;20011;-75
2022/12/24 13:10:52;;;;;;;13.77;2.45;;;;;;;;;;7396312;19;20313;-76
2022/12/24 13:13:29;;;;;;;15.05;2.83;;;;;;;;;;7387609;19;20006;-77
2022/12/24 13:16:06;;;;;;;11.82;2.53;;;;;;;;;;7394005;19;20062;-77
2022/12/24 13:18:38;;;;;;;17.33;3.63;;;;;;;;;;7393050;19;20003;-76
2022/12/24 13:21:03;;;;;;;14.00;3.05;;;;;;;;;;7395197;19;19998;-75
2022/12/24 13:23:29;;;;;;;15.82;3.10;;;;;;;;;;7399999;19;19991;-77
2022/12/24 13:25:56;;;;;;;22.42;3.35;;;;;;;;;;7395502;19;20037;-76
2022/12/24 13:28:22;;;;;;;9.95;3.30;;;;;;;;;;7391424;19;20455;-75
2022/12/24 13:30:49;;;;;;;18.67;3.40;;;;;;;;;;7394046;19;20056;-76
2022/12/24 13:33:37;;;;;;;15.68;2.83;;;;;;;;;;7389789;19;20601;-74
2022/12/24 13:36:05;;;;;;;17.35;2.80;;;;;;;;;;7393647;19;19998;-76
2022/12/24 13:38:43;;;;;;;15.80;2.95;;;;;;;;;;7392824;19;20007;-76
2022/12/24 13:41:30;;;;;;;15.25;2.97;;;;;;;;;;7398080;19;20009;-76
2022/12/24 13:44:12;;;;;;;17.25;4.07;;;;;;;;;;7388731;19;19998;-76
2022/12/24 13:46:50;;;;;;;10.75;2.70;;;;;;;;;;7392832;19;20496;-76
2022/12/24 13:49:34;;;;;;;15.32;3.35;;;;;;;;;;7392516;19;20066;-75
2022/12/24 13:52:10;;;;;;;14.07;3.40;;;;;;;;;;7391935;19;20479;-76
2022/12/24 13:54:41;;;;;;;14.13;3.20;;;;;;;;;;7389593;19;20372;-77
2022/12/24 13:57:31;;;;;;;18.25;3.47;;;;;;;;;;7393573;19;20024;-76
2022/12/24 14:00:11;;;;;;;16.60;3.63;;;;;;;;;;7391090;19;19998;-76
2022/12/24 14:02:45;;;;;;;13.23;3.05;;;;;;;;;;7389575;19;19998;-75
2022/12/24 14:05:25;;;;;;;12.07;3.10;;;;;;;;;;7390687;19;20002;-78
2022/12/24 14:07:51;;;;;;;18.42;3.50;;;;;;;;;;7388926;19;20005;-74
2022/12/24 14:10:23;;;;;;;17.17;3.10;;;;;;;;;;7390985;19;20005;-74
2022/12/24 14:12:50;;;;;;;16.13;3.45;;;;;;;;;;7388038;19;20078;-75
2022/12/24 14:15:45;;;;;;;16.88;3.75;;;;;;;;;;7392862;19;19995;-76
2022/12/24 14:18:17;;;;;;;19.63;3.63;;;;;;;;;;7390213;19;19998;-72
2022/12/24 14:20:46;;;;;;;17.55;3.70;;;;;;;;;;7389181;19;20031;-71
2022/12/24 14:23:35;;;;;;;12.55;3.13;;;;;;;;;;7390127;19;20019;-71
2022/12/24 14:26:02;;;;;;;17.02;3.65;;;;;;;;;;7386709;19;20027;-73
2022/12/24 14:28:40;;;;;;;16.23;3.42;;;;;;;;;;7390190;19;19999;-74
2022/12/24 14:31:13;;;;;;;15.93;3.40;;;;;;;;;;7389619;19;19999;-75
2022/12/24 14:33:39;;;;;;;16.10;3.55;;;;;;;;;;7387126;19;20007;-77
2022/12/24 14:36:05;;;;;;;19.20;4.57;;;;;;;;;;7387693;19;20417;-77
2022/12/24 14:38:32;;;;;;;20.20;3.75;;;;;;;;;;7383912;19;20362;-74
2022/12/24 14:41:12;;;;;;;16.10;3.75;;;;;;;;;;7389278;19;20010;-75
2022/12/24 14:44:07;;;;;;;18.42;3.80;;;;;;;;;;7388202;19;20019;-73
2022/12/24 14:46:47;;;;;;;15.13;3.63;;;;;;;;;;7389722;19;20007;-79
2022/12/24 14:49:34;;;;;;;13.32;3.60;;;;;;;;;;7388183;19;20017;-75
2022/12/24 14:52:11;;;;;;;9.43;3.05;;;;;;;;;;7387697;19;20310;-78
2022/12/24 14:54:40;;;;;;;14.18;2.90;;;;;;;;;;7387108;19;20013;-77
2022/12/24 14:57:10;;;;;;;12.15;3.15;;;;;;;;;;7390454;19;20326;-76
2022/12/24 14:59:53;;;;;;;17.85;3.67;;;;;;;;;;7389996;19;20421;-74
2022/12/24 15:02:44;;;;;;;12.05;2.80;;;;;;;;;;7389808;19;20017;-76
2022/12/24 15:05:19;;;;;;;13.77;3.10;;;;;;;;;;7390526;19;20007;-77